sensor_id;sensor_type;location;lat;lon;timestamp;P1;durP1;ratioP1;P2;durP2;ratioP2
77409;SDS011;66481;51.332;22.804;2023-11-19T00:03:34;43.80;;;17.25;;
77409;SDS011;66481;51.332;22.804;2023-11-19T00:07:36;50.38;;;16.35;;
77409;SDS011;66481;51.332;22.804;2023-11-19T00:11:37;54.35;;;16.67;;
77409;SDS011;66481;51.332;22.804;2023-11-19T00:15:38;50.20;;;18.02;;
77409;SDS011;66481;51.332;22.804;2023-11-19T00:19:39;48.45;;;16.88;;
77409;SDS011;66481;51.332;22.804;2023-11-19T00:23:40;51.38;;;16.60;;
77409;SDS011;66481;51.332;22.804;2023-11-19T00:27:43;66.13;;;17.77;;
77409;SDS011;66481;51.332;22.804;2023-11-19T00:31:47;47.78;;;16.23;;
77409;SDS011;66481;51.332;22.804;2023-11-19T00:35:48;47.72;;;16.40;;
77409;SDS011;66481;51.332;22.804;2023-11-19T00:39:49;39.17;;;14.98;;
77409;SDS011;66481;51.332;22.804;2023-11-19T00:43:50;43.20;;;16.23;;
77409;SDS011;66481;51.332;22.804;2023-11-19T00:47:52;47.97;;;16.77;;
77409;SDS011;66481;51.332;22.804;2023-11-19T00:51:53;38.45;;;14.40;;
77409;SDS011;66481;51.332;22.804;2023-11-19T00:55:54;53.38;;;17.27;;
77409;SDS011;66481;51.332;22.804;2023-11-19T00:59:55;60.63;;;17.52;;
77409;SDS011;66481;51.332;22.804;2023-11-19T01:03:56;51.25;;;17.85;;
77409;SDS011;66481;51.332;22.804;2023-11-19T01:07:59;49.70;;;15.70;;
77409;SDS011;66481;51.332;22.804;2023-11-19T01:12:01;45.95;;;15.52;;
77409;SDS011;66481;51.332;22.804;2023-11-19T01:16:02;55.42;;;14.18;;
77409;SDS011;66481;51.332;22.804;2023-11-19T01:20:04;43.28;;;14.57;;
77409;SDS011;66481;51.332;22.804;2023-11-19T01:24:07;42.95;;;13.93;;
77409;SDS011;66481;51.332;22.804;2023-11-19T01:28:10;46.42;;;16.45;;
77409;SDS011;66481;51.332;22.804;2023-11-19T01:32:11;68.35;;;17.02;;
77409;SDS011;66481;51.332;22.804;2023-11-19T01:36:13;76.75;;;17.95;;
77409;SDS011;66481;51.332;22.804;2023-11-19T01:40:14;68.85;;;17.35;;
77409;SDS011;66481;51.332;22.804;2023-11-19T01:44:16;92.90;;;19.85;;
77409;SDS011;66481;51.332;22.804;2023-11-19T01:48:18;69.85;;;17.60;;
77409;SDS011;66481;51.332;22.804;2023-11-19T01:52:19;90.40;;;19.33;;
77409;SDS011;66481;51.332;22.804;2023-11-19T01:56:21;66.63;;;19.02;;
77409;SDS011;66481;51.332;22.804;2023-11-19T02:00:22;127.65;;;23.90;;
77409;SDS011;66481;51.332;22.804;2023-11-19T02:04:24;92.05;;;21.30;;
77409;SDS011;66481;51.332;22.804;2023-11-19T02:08:25;76.22;;;20.77;;
77409;SDS011;66481;51.332;22.804;2023-11-19T02:12:27;80.80;;;20.00;;
77409;SDS011;66481;51.332;22.804;2023-11-19T02:16:34;82.93;;;20.27;;
77409;SDS011;66481;51.332;22.804;2023-11-19T02:20:35;97.00;;;22.95;;
77409;SDS011;66481;51.332;22.804;2023-11-19T02:24:36;94.78;;;24.65;;
77409;SDS011;66481;51.332;22.804;2023-11-19T02:28:37;82.00;;;21.70;;
77409;SDS011;66481;51.332;22.804;2023-11-19T02:32:39;86.03;;;21.77;;
77409;SDS011;66481;51.332;22.804;2023-11-19T02:36:42;94.60;;;20.20;;
77409;SDS011;66481;51.332;22.804;2023-11-19T02:40:43;72.43;;;17.33;;
77409;SDS011;66481;51.332;22.804;2023-11-19T02:44:44;65.75;;;16.60;;
77409;SDS011;66481;51.332;22.804;2023-11-19T02:48:46;65.10;;;17.73;;
77409;SDS011;66481;51.332;22.804;2023-11-19T02:52:47;60.35;;;17.38;;
77409;SDS011;66481;51.332;22.804;2023-11-19T02:56:49;92.38;;;20.08;;
77409;SDS011;66481;51.332;22.804;2023-11-19T03:00:56;56.25;;;17.05;;
77409;SDS011;66481;51.332;22.804;2023-11-19T03:05:03;52.83;;;17.25;;
77409;SDS011;66481;51.332;22.804;2023-11-19T03:09:05;44.75;;;16.58;;
77409;SDS011;66481;51.332;22.804;2023-11-19T03:13:11;47.58;;;16.15;;
77409;SDS011;66481;51.332;22.804;2023-11-19T03:17:16;49.72;;;16.23;;
77409;SDS011;66481;51.332;22.804;2023-11-19T03:21:17;42.83;;;15.88;;
77409;SDS011;66481;51.332;22.804;2023-11-19T03:25:18;43.38;;;15.48;;
77409;SDS011;66481;51.332;22.804;2023-11-19T03:29:19;55.25;;;17.58;;
77409;SDS011;66481;51.332;22.804;2023-11-19T03:33:20;61.42;;;18.58;;
77409;SDS011;66481;51.332;22.804;2023-11-19T03:37:21;56.80;;;19.52;;
77409;SDS011;66481;51.332;22.804;2023-11-19T03:41:21;62.80;;;19.73;;
77409;SDS011;66481;51.332;22.804;2023-11-19T03:45:22;64.97;;;21.83;;
77409;SDS011;66481;51.332;22.804;2023-11-19T03:49:24;76.60;;;23.52;;
77409;SDS011;66481;51.332;22.804;2023-11-19T03:53:24;73.70;;;21.30;;
77409;SDS011;66481;51.332;22.804;2023-11-19T03:57:26;73.88;;;21.35;;
77409;SDS011;66481;51.332;22.804;2023-11-19T04:01:28;86.60;;;22.58;;
77409;SDS011;66481;51.332;22.804;2023-11-19T04:05:29;91.72;;;23.08;;
77409;SDS011;66481;51.332;22.804;2023-11-19T04:09:30;114.70;;;21.95;;
77409;SDS011;66481;51.332;22.804;2023-11-19T04:13:33;80.75;;;21.25;;
77409;SDS011;66481;51.332;22.804;2023-11-19T04:17:34;76.55;;;25.40;;
77409;SDS011;66481;51.332;22.804;2023-11-19T04:21:36;69.68;;;19.05;;
77409;SDS011;66481;51.332;22.804;2023-11-19T04:25:39;61.83;;;21.77;;
77409;SDS011;66481;51.332;22.804;2023-11-19T04:29:41;56.85;;;18.77;;
77409;SDS011;66481;51.332;22.804;2023-11-19T04:33:42;46.33;;;19.23;;
77409;SDS011;66481;51.332;22.804;2023-11-19T04:37:44;46.40;;;17.25;;
77409;SDS011;66481;51.332;22.804;2023-11-19T04:41:51;46.72;;;18.33;;
77409;SDS011;66481;51.332;22.804;2023-11-19T04:45:53;47.55;;;17.08;;
77409;SDS011;66481;51.332;22.804;2023-11-19T04:49:54;41.35;;;16.83;;
77409;SDS011;66481;51.332;22.804;2023-11-19T04:53:55;39.30;;;15.27;;
77409;SDS011;66481;51.332;22.804;2023-11-19T04:57:57;41.20;;;15.32;;
77409;SDS011;66481;51.332;22.804;2023-11-19T05:01:58;36.17;;;14.95;;
77409;SDS011;66481;51.332;22.804;2023-11-19T05:05:59;44.08;;;16.75;;
77409;SDS011;66481;51.332;22.804;2023-11-19T05:10:00;39.60;;;13.80;;
77409;SDS011;66481;51.332;22.804;2023-11-19T05:14:04;46.05;;;16.38;;
77409;SDS011;66481;51.332;22.804;2023-11-19T05:22:06;38.83;;;15.05;;
77409;SDS011;66481;51.332;22.804;2023-11-19T05:26:08;40.28;;;16.08;;
77409;SDS011;66481;51.332;22.804;2023-11-19T05:30:10;39.55;;;17.58;;
77409;SDS011;66481;51.332;22.804;2023-11-19T05:34:11;35.88;;;13.48;;
77409;SDS011;66481;51.332;22.804;2023-11-19T05:38:12;34.22;;;12.55;;
77409;SDS011;66481;51.332;22.804;2023-11-19T05:42:13;47.53;;;14.90;;
77409;SDS011;66481;51.332;22.804;2023-11-19T05:46:14;50.80;;;14.82;;
77409;SDS011;66481;51.332;22.804;2023-11-19T05:50:15;46.28;;;13.88;;
77409;SDS011;66481;51.332;22.804;2023-11-19T05:54:16;50.40;;;15.00;;
77409;SDS011;66481;51.332;22.804;2023-11-19T05:58:17;51.95;;;18.02;;
77409;SDS011;66481;51.332;22.804;2023-11-19T06:02:18;48.15;;;14.77;;
77409;SDS011;66481;51.332;22.804;2023-11-19T06:06:19;43.85;;;14.85;;
77409;SDS011;66481;51.332;22.804;2023-11-19T06:10:20;37.50;;;14.38;;
77409;SDS011;66481;51.332;22.804;2023-11-19T06:14:21;46.67;;;14.07;;
77409;SDS011;66481;51.332;22.804;2023-11-19T06:18:24;44.58;;;14.02;;
77409;SDS011;66481;51.332;22.804;2023-11-19T06:22:25;45.03;;;13.98;;
77409;SDS011;66481;51.332;22.804;2023-11-19T06:26:27;51.97;;;13.80;;
77409;SDS011;66481;51.332;22.804;2023-11-19T06:30:28;40.08;;;13.00;;
77409;SDS011;66481;51.332;22.804;2023-11-19T06:34:30;45.80;;;14.50;;
77409;SDS011;66481;51.332;22.804;2023-11-19T06:38:33;46.25;;;15.40;;
77409;SDS011;66481;51.332;22.804;2023-11-19T06:42:35;49.90;;;15.80;;
77409;SDS011;66481;51.332;22.804;2023-11-19T06:46:36;56.10;;;16.63;;
77409;SDS011;66481;51.332;22.804;2023-11-19T06:50:37;64.25;;;17.63;;
77409;SDS011;66481;51.332;22.804;2023-11-19T06:54:39;42.95;;;16.23;;
77409;SDS011;66481;51.332;22.804;2023-11-19T06:58:40;70.93;;;27.85;;
77409;SDS011;66481;51.332;22.804;2023-11-19T07:02:42;58.15;;;16.98;;
77409;SDS011;66481;51.332;22.804;2023-11-19T07:06:45;60.58;;;18.48;;
77409;SDS011;66481;51.332;22.804;2023-11-19T07:10:46;48.03;;;16.02;;
77409;SDS011;66481;51.332;22.804;2023-11-19T07:14:48;54.63;;;16.52;;
77409;SDS011;66481;51.332;22.804;2023-11-19T07:18:49;50.17;;;15.55;;
77409;SDS011;66481;51.332;22.804;2023-11-19T07:22:50;43.47;;;14.95;;
77409;SDS011;66481;51.332;22.804;2023-11-19T07:26:52;45.13;;;16.58;;
77409;SDS011;66481;51.332;22.804;2023-11-19T07:30:53;39.45;;;14.00;;
77409;SDS011;66481;51.332;22.804;2023-11-19T07:34:56;47.53;;;13.65;;
77409;SDS011;66481;51.332;22.804;2023-11-19T07:38:58;39.10;;;13.80;;
77409;SDS011;66481;51.332;22.804;2023-11-19T07:42:59;39.70;;;14.60;;
77409;SDS011;66481;51.332;22.804;2023-11-19T07:47:01;49.58;;;15.65;;
77409;SDS011;66481;51.332;22.804;2023-11-19T07:51:02;53.35;;;15.85;;
77409;SDS011;66481;51.332;22.804;2023-11-19T07:55:04;52.55;;;18.17;;
77409;SDS011;66481;51.332;22.804;2023-11-19T07:59:06;52.10;;;16.35;;
77409;SDS011;66481;51.332;22.804;2023-11-19T08:03:07;70.10;;;18.85;;
77409;SDS011;66481;51.332;22.804;2023-11-19T08:07:09;73.35;;;18.80;;
77409;SDS011;66481;51.332;22.804;2023-11-19T08:11:10;47.53;;;16.90;;
77409;SDS011;66481;51.332;22.804;2023-11-19T08:15:12;46.47;;;15.48;;
77409;SDS011;66481;51.332;22.804;2023-11-19T08:19:13;50.40;;;16.42;;
77409;SDS011;66481;51.332;22.804;2023-11-19T08:23:15;44.92;;;15.55;;
77409;SDS011;66481;51.332;22.804;2023-11-19T08:27:16;44.50;;;15.13;;
77409;SDS011;66481;51.332;22.804;2023-11-19T08:31:18;41.53;;;14.95;;
77409;SDS011;66481;51.332;22.804;2023-11-19T08:35:20;35.83;;;13.35;;
77409;SDS011;66481;51.332;22.804;2023-11-19T08:39:21;31.70;;;12.70;;
77409;SDS011;66481;51.332;22.804;2023-11-19T08:43:23;35.03;;;13.52;;
77409;SDS011;66481;51.332;22.804;2023-11-19T08:47:25;39.58;;;14.32;;
77409;SDS011;66481;51.332;22.804;2023-11-19T08:51:26;37.00;;;14.77;;
77409;SDS011;66481;51.332;22.804;2023-11-19T08:55:29;39.13;;;14.13;;
77409;SDS011;66481;51.332;22.804;2023-11-19T08:59:33;39.17;;;15.35;;
77409;SDS011;66481;51.332;22.804;2023-11-19T09:03:34;40.30;;;13.95;;
77409;SDS011;66481;51.332;22.804;2023-11-19T09:11:40;32.75;;;13.32;;
77409;SDS011;66481;51.332;22.804;2023-11-19T09:15:42;29.70;;;11.73;;
77409;SDS011;66481;51.332;22.804;2023-11-19T09:19:44;30.70;;;12.82;;
77409;SDS011;66481;51.332;22.804;2023-11-19T09:23:45;31.60;;;12.10;;
77409;SDS011;66481;51.332;22.804;2023-11-19T09:27:48;37.58;;;13.32;;
77409;SDS011;66481;51.332;22.804;2023-11-19T09:31:49;34.45;;;13.88;;
77409;SDS011;66481;51.332;22.804;2023-11-19T09:35:51;30.77;;;12.15;;
77409;SDS011;66481;51.332;22.804;2023-11-19T09:39:52;30.58;;;11.55;;
77409;SDS011;66481;51.332;22.804;2023-11-19T09:43:54;31.75;;;13.70;;
77409;SDS011;66481;51.332;22.804;2023-11-19T09:47:56;22.55;;;9.52;;
77409;SDS011;66481;51.332;22.804;2023-11-19T09:51:59;24.73;;;10.65;;
77409;SDS011;66481;51.332;22.804;2023-11-19T09:56:05;26.27;;;12.27;;
77409;SDS011;66481;51.332;22.804;2023-11-19T10:00:08;22.13;;;9.85;;
77409;SDS011;66481;51.332;22.804;2023-11-19T10:04:13;25.73;;;11.60;;
77409;SDS011;66481;51.332;22.804;2023-11-19T10:08:18;24.83;;;12.77;;
77409;SDS011;66481;51.332;22.804;2023-11-19T10:12:19;24.25;;;11.57;;
77409;SDS011;66481;51.332;22.804;2023-11-19T10:16:24;22.92;;;11.25;;
77409;SDS011;66481;51.332;22.804;2023-11-19T10:20:40;23.35;;;12.77;;
77409;SDS011;66481;51.332;22.804;2023-11-19T10:24:41;21.92;;;10.50;;
77409;SDS011;66481;51.332;22.804;2023-11-19T10:28:42;17.45;;;9.57;;
77409;SDS011;66481;51.332;22.804;2023-11-19T10:32:52;24.35;;;11.07;;
77409;SDS011;66481;51.332;22.804;2023-11-19T10:37:11;19.25;;;9.05;;
77409;SDS011;66481;51.332;22.804;2023-11-19T10:41:29;20.83;;;9.85;;
77409;SDS011;66481;51.332;22.804;2023-11-19T10:45:31;21.02;;;9.57;;
77409;SDS011;66481;51.332;22.804;2023-11-19T10:49:34;26.83;;;10.80;;
77409;SDS011;66481;51.332;22.804;2023-11-19T10:53:36;28.25;;;12.60;;
77409;SDS011;66481;51.332;22.804;2023-11-19T10:57:42;27.75;;;11.88;;
77409;SDS011;66481;51.332;22.804;2023-11-19T11:01:48;25.45;;;12.95;;
77409;SDS011;66481;51.332;22.804;2023-11-19T11:05:54;25.23;;;11.95;;
77409;SDS011;66481;51.332;22.804;2023-11-19T11:09:55;20.58;;;10.15;;
77409;SDS011;66481;51.332;22.804;2023-11-19T11:13:58;20.10;;;9.85;;
77409;SDS011;66481;51.332;22.804;2023-11-19T11:18:02;19.55;;;10.25;;
77409;SDS011;66481;51.332;22.804;2023-11-19T11:22:04;20.10;;;9.77;;
77409;SDS011;66481;51.332;22.804;2023-11-19T11:30:55;16.35;;;8.38;;
77409;SDS011;66481;51.332;22.804;2023-11-19T11:35:31;33.70;;;14.95;;
77409;SDS011;66481;51.332;22.804;2023-11-19T11:39:56;23.33;;;10.35;;
77409;SDS011;66481;51.332;22.804;2023-11-19T11:44:00;21.10;;;10.20;;
77409;SDS011;66481;51.332;22.804;2023-11-19T11:48:05;17.38;;;8.93;;
77409;SDS011;66481;51.332;22.804;2023-11-19T11:52:15;20.52;;;10.38;;
77409;SDS011;66481;51.332;22.804;2023-11-19T11:56:17;21.23;;;9.60;;
77409;SDS011;66481;51.332;22.804;2023-11-19T12:00:32;20.98;;;9.80;;
77409;SDS011;66481;51.332;22.804;2023-11-19T12:10:15;23.85;;;10.40;;
77409;SDS011;66481;51.332;22.804;2023-11-19T12:14:19;25.02;;;10.32;;
77409;SDS011;66481;51.332;22.804;2023-11-19T12:19:03;24.40;;;10.93;;
77409;SDS011;66481;51.332;22.804;2023-11-19T12:23:08;29.02;;;13.25;;
77409;SDS011;66481;51.332;22.804;2023-11-19T12:27:10;25.27;;;11.70;;
77409;SDS011;66481;51.332;22.804;2023-11-19T12:31:13;19.23;;;10.32;;
77409;SDS011;66481;51.332;22.804;2023-11-19T12:35:15;33.50;;;14.40;;
77409;SDS011;66481;51.332;22.804;2023-11-19T12:39:17;21.85;;;10.65;;
77409;SDS011;66481;51.332;22.804;2023-11-19T12:43:23;31.13;;;11.70;;
77409;SDS011;66481;51.332;22.804;2023-11-19T12:47:24;31.77;;;13.60;;
77409;SDS011;66481;51.332;22.804;2023-11-19T12:51:32;27.38;;;12.82;;
77409;SDS011;66481;51.332;22.804;2023-11-19T12:55:34;35.30;;;12.75;;
77409;SDS011;66481;51.332;22.804;2023-11-19T12:59:35;24.27;;;9.70;;
77409;SDS011;66481;51.332;22.804;2023-11-19T13:03:37;29.20;;;11.40;;
77409;SDS011;66481;51.332;22.804;2023-11-19T13:07:42;30.70;;;14.57;;
77409;SDS011;66481;51.332;22.804;2023-11-19T13:11:43;31.58;;;14.40;;
77409;SDS011;66481;51.332;22.804;2023-11-19T13:15:47;38.03;;;15.80;;
77409;SDS011;66481;51.332;22.804;2023-11-19T13:19:49;48.33;;;19.90;;
77409;SDS011;66481;51.332;22.804;2023-11-19T13:23:51;44.05;;;17.88;;
77409;SDS011;66481;51.332;22.804;2023-11-19T13:27:53;42.25;;;16.20;;
77409;SDS011;66481;51.332;22.804;2023-11-19T13:31:54;40.33;;;15.77;;
77409;SDS011;66481;51.332;22.804;2023-11-19T13:35:56;34.10;;;16.45;;
77409;SDS011;66481;51.332;22.804;2023-11-19T13:39:57;34.85;;;16.25;;
77409;SDS011;66481;51.332;22.804;2023-11-19T13:43:58;33.50;;;14.68;;
77409;SDS011;66481;51.332;22.804;2023-11-19T13:48:02;30.55;;;13.85;;
77409;SDS011;66481;51.332;22.804;2023-11-19T13:52:03;30.45;;;14.02;;
77409;SDS011;66481;51.332;22.804;2023-11-19T13:56:04;38.67;;;19.52;;
77409;SDS011;66481;51.332;22.804;2023-11-19T14:00:07;26.15;;;13.23;;
77409;SDS011;66481;51.332;22.804;2023-11-19T14:04:19;28.95;;;14.18;;
77409;SDS011;66481;51.332;22.804;2023-11-19T14:08:20;30.67;;;15.30;;
77409;SDS011;66481;51.332;22.804;2023-11-19T14:12:21;25.90;;;13.27;;
77409;SDS011;66481;51.332;22.804;2023-11-19T14:16:26;42.00;;;18.65;;
77409;SDS011;66481;51.332;22.804;2023-11-19T14:20:28;36.22;;;17.58;;
77409;SDS011;66481;51.332;22.804;2023-11-19T14:24:30;27.05;;;15.02;;
77409;SDS011;66481;51.332;22.804;2023-11-19T14:28:31;27.85;;;13.75;;
77409;SDS011;66481;51.332;22.804;2023-11-19T14:32:33;33.70;;;15.20;;
77409;SDS011;66481;51.332;22.804;2023-11-19T14:36:37;37.83;;;14.43;;
77409;SDS011;66481;51.332;22.804;2023-11-19T14:40:39;27.80;;;15.35;;
77409;SDS011;66481;51.332;22.804;2023-11-19T14:44:40;40.55;;;20.42;;
77409;SDS011;66481;51.332;22.804;2023-11-19T14:48:42;36.92;;;17.15;;
77409;SDS011;66481;51.332;22.804;2023-11-19T14:52:44;38.28;;;21.35;;
77409;SDS011;66481;51.332;22.804;2023-11-19T14:56:46;33.47;;;19.60;;
77409;SDS011;66481;51.332;22.804;2023-11-19T15:00:48;26.67;;;14.18;;
77409;SDS011;66481;51.332;22.804;2023-11-19T15:04:50;32.78;;;15.38;;
77409;SDS011;66481;51.332;22.804;2023-11-19T15:08:52;31.30;;;13.80;;
77409;SDS011;66481;51.332;22.804;2023-11-19T15:12:57;27.02;;;13.45;;
77409;SDS011;66481;51.332;22.804;2023-11-19T15:16:59;25.42;;;13.60;;
77409;SDS011;66481;51.332;22.804;2023-11-19T15:21:00;22.50;;;13.77;;
77409;SDS011;66481;51.332;22.804;2023-11-19T15:25:01;27.83;;;14.52;;
77409;SDS011;66481;51.332;22.804;2023-11-19T15:29:04;32.08;;;14.35;;
77409;SDS011;66481;51.332;22.804;2023-11-19T15:33:06;35.47;;;16.20;;
77409;SDS011;66481;51.332;22.804;2023-11-19T15:37:09;46.47;;;20.05;;
77409;SDS011;66481;51.332;22.804;2023-11-19T15:45:15;32.13;;;14.95;;
77409;SDS011;66481;51.332;22.804;2023-11-19T15:49:18;29.98;;;14.25;;
77409;SDS011;66481;51.332;22.804;2023-11-19T15:53:22;41.40;;;18.52;;
77409;SDS011;66481;51.332;22.804;2023-11-19T15:57:24;42.53;;;18.25;;
77409;SDS011;66481;51.332;22.804;2023-11-19T16:06:46;35.70;;;16.83;;
77409;SDS011;66481;51.332;22.804;2023-11-19T16:10:49;38.13;;;18.90;;
77409;SDS011;66481;51.332;22.804;2023-11-19T16:14:51;46.83;;;20.65;;
77409;SDS011;66481;51.332;22.804;2023-11-19T16:18:53;30.98;;;16.05;;
77409;SDS011;66481;51.332;22.804;2023-11-19T16:22:54;38.65;;;17.83;;
77409;SDS011;66481;51.332;22.804;2023-11-19T16:26:56;36.40;;;18.05;;
77409;SDS011;66481;51.332;22.804;2023-11-19T16:30:57;34.15;;;15.30;;
77409;SDS011;66481;51.332;22.804;2023-11-19T16:34:58;33.30;;;17.02;;
77409;SDS011;66481;51.332;22.804;2023-11-19T16:38:59;34.28;;;16.02;;
77409;SDS011;66481;51.332;22.804;2023-11-19T16:43:01;27.25;;;12.80;;
77409;SDS011;66481;51.332;22.804;2023-11-19T16:47:02;32.97;;;15.30;;
77409;SDS011;66481;51.332;22.804;2023-11-19T16:51:11;28.08;;;12.68;;
77409;SDS011;66481;51.332;22.804;2023-11-19T16:55:15;32.78;;;16.10;;
77409;SDS011;66481;51.332;22.804;2023-11-19T16:59:17;41.92;;;18.15;;
77409;SDS011;66481;51.332;22.804;2023-11-19T17:03:20;36.80;;;15.45;;
77409;SDS011;66481;51.332;22.804;2023-11-19T17:07:31;35.15;;;16.65;;
77409;SDS011;66481;51.332;22.804;2023-11-19T17:11:33;44.45;;;18.70;;
77409;SDS011;66481;51.332;22.804;2023-11-19T17:25:17;37.45;;;16.77;;
77409;SDS011;66481;51.332;22.804;2023-11-19T17:29:19;42.03;;;17.63;;
77409;SDS011;66481;51.332;22.804;2023-11-19T17:33:22;45.13;;;18.65;;
77409;SDS011;66481;51.332;22.804;2023-11-19T17:37:24;46.22;;;21.02;;
77409;SDS011;66481;51.332;22.804;2023-11-19T17:41:26;44.72;;;20.02;;
77409;SDS011;66481;51.332;22.804;2023-11-19T17:45:30;36.75;;;15.88;;
77409;SDS011;66481;51.332;22.804;2023-11-19T17:49:32;47.97;;;19.63;;
77409;SDS011;66481;51.332;22.804;2023-11-19T17:53:35;48.60;;;20.15;;
77409;SDS011;66481;51.332;22.804;2023-11-19T17:57:42;46.63;;;19.17;;
77409;SDS011;66481;51.332;22.804;2023-11-19T18:01:45;42.45;;;18.60;;
77409;SDS011;66481;51.332;22.804;2023-11-19T18:05:46;45.55;;;19.33;;
77409;SDS011;66481;51.332;22.804;2023-11-19T18:09:49;48.78;;;20.77;;
77409;SDS011;66481;51.332;22.804;2023-11-19T18:13:50;49.95;;;21.92;;
77409;SDS011;66481;51.332;22.804;2023-11-19T18:17:52;45.80;;;20.23;;
77409;SDS011;66481;51.332;22.804;2023-11-19T18:21:55;43.28;;;19.40;;
77409;SDS011;66481;51.332;22.804;2023-11-19T18:26:01;38.53;;;16.83;;
77409;SDS011;66481;51.332;22.804;2023-11-19T18:30:08;41.67;;;17.42;;
77409;SDS011;66481;51.332;22.804;2023-11-19T18:34:12;44.08;;;19.27;;
77409;SDS011;66481;51.332;22.804;2023-11-19T18:38:14;48.50;;;20.58;;
77409;SDS011;66481;51.332;22.804;2023-11-19T18:42:18;51.72;;;24.48;;
77409;SDS011;66481;51.332;22.804;2023-11-19T18:46:21;43.55;;;20.63;;
77409;SDS011;66481;51.332;22.804;2023-11-19T18:50:22;38.22;;;16.67;;
77409;SDS011;66481;51.332;22.804;2023-11-19T18:54:25;46.72;;;18.40;;
77409;SDS011;66481;51.332;22.804;2023-11-19T18:58:31;41.08;;;19.23;;
77409;SDS011;66481;51.332;22.804;2023-11-19T19:02:36;44.80;;;22.25;;
77409;SDS011;66481;51.332;22.804;2023-11-19T19:06:44;43.92;;;19.10;;
77409;SDS011;66481;51.332;22.804;2023-11-19T19:10:51;47.10;;;20.63;;
77409;SDS011;66481;51.332;22.804;2023-11-19T19:14:52;39.08;;;19.27;;
77409;SDS011;66481;51.332;22.804;2023-11-19T19:18:55;41.42;;;19.70;;
77409;SDS011;66481;51.332;22.804;2023-11-19T19:22:57;35.15;;;17.95;;
77409;SDS011;66481;51.332;22.804;2023-11-19T19:26:59;39.53;;;18.58;;
77409;SDS011;66481;51.332;22.804;2023-11-19T19:31:01;63.00;;;23.83;;
77409;SDS011;66481;51.332;22.804;2023-11-19T19:35:03;63.05;;;25.42;;
77409;SDS011;66481;51.332;22.804;2023-11-19T19:39:08;45.92;;;20.00;;
77409;SDS011;66481;51.332;22.804;2023-11-19T19:43:14;53.67;;;19.30;;
77409;SDS011;66481;51.332;22.804;2023-11-19T19:47:16;56.03;;;26.00;;
77409;SDS011;66481;51.332;22.804;2023-11-19T19:51:19;64.57;;;26.48;;
77409;SDS011;66481;51.332;22.804;2023-11-19T19:55:21;51.30;;;24.83;;
77409;SDS011;66481;51.332;22.804;2023-11-19T19:59:22;45.33;;;19.98;;
77409;SDS011;66481;51.332;22.804;2023-11-19T20:03:24;45.42;;;18.02;;
77409;SDS011;66481;51.332;22.804;2023-11-19T20:07:25;48.50;;;19.20;;
77409;SDS011;66481;51.332;22.804;2023-11-19T20:11:26;46.80;;;18.98;;
77409;SDS011;66481;51.332;22.804;2023-11-19T20:15:32;49.67;;;22.17;;
77409;SDS011;66481;51.332;22.804;2023-11-19T20:19:33;52.42;;;22.38;;
77409;SDS011;66481;51.332;22.804;2023-11-19T20:23:36;43.40;;;20.08;;
77409;SDS011;66481;51.332;22.804;2023-11-19T20:27:38;48.60;;;20.25;;
77409;SDS011;66481;51.332;22.804;2023-11-19T20:31:40;51.75;;;21.90;;
77409;SDS011;66481;51.332;22.804;2023-11-19T20:35:43;45.45;;;16.95;;
77409;SDS011;66481;51.332;22.804;2023-11-19T20:39:48;46.13;;;16.73;;
77409;SDS011;66481;51.332;22.804;2023-11-19T20:43:50;46.05;;;18.35;;
77409;SDS011;66481;51.332;22.804;2023-11-19T20:47:53;33.50;;;15.25;;
77409;SDS011;66481;51.332;22.804;2023-11-19T20:51:55;46.90;;;16.20;;
77409;SDS011;66481;51.332;22.804;2023-11-19T20:55:57;35.70;;;15.60;;
77409;SDS011;66481;51.332;22.804;2023-11-19T20:59:59;44.47;;;17.67;;
77409;SDS011;66481;51.332;22.804;2023-11-19T21:04:02;43.90;;;19.10;;
77409;SDS011;66481;51.332;22.804;2023-11-19T21:08:05;45.17;;;21.58;;
77409;SDS011;66481;51.332;22.804;2023-11-19T21:12:10;52.80;;;22.55;;
77409;SDS011;66481;51.332;22.804;2023-11-19T21:16:12;38.30;;;17.05;;
77409;SDS011;66481;51.332;22.804;2023-11-19T21:20:16;44.30;;;17.55;;
77409;SDS011;66481;51.332;22.804;2023-11-19T21:24:18;39.20;;;17.10;;
77409;SDS011;66481;51.332;22.804;2023-11-19T21:28:20;39.95;;;17.67;;
77409;SDS011;66481;51.332;22.804;2023-11-19T21:32:28;44.75;;;18.17;;
77409;SDS011;66481;51.332;22.804;2023-11-19T21:36:30;37.17;;;15.63;;
77409;SDS011;66481;51.332;22.804;2023-11-19T21:40:32;39.78;;;16.75;;
77409;SDS011;66481;51.332;22.804;2023-11-19T21:44:34;38.88;;;17.80;;
77409;SDS011;66481;51.332;22.804;2023-11-19T21:48:38;36.53;;;14.82;;
77409;SDS011;66481;51.332;22.804;2023-11-19T21:52:40;47.28;;;18.83;;
77409;SDS011;66481;51.332;22.804;2023-11-19T21:56:43;39.20;;;16.10;;
77409;SDS011;66481;51.332;22.804;2023-11-19T22:00:44;39.80;;;17.30;;
77409;SDS011;66481;51.332;22.804;2023-11-19T22:04:48;25.90;;;11.98;;
77409;SDS011;66481;51.332;22.804;2023-11-19T22:08:53;37.63;;;16.35;;
77409;SDS011;66481;51.332;22.804;2023-11-19T22:12:54;39.03;;;16.45;;
77409;SDS011;66481;51.332;22.804;2023-11-19T22:16:55;30.35;;;14.98;;
77409;SDS011;66481;51.332;22.804;2023-11-19T22:20:57;33.17;;;16.33;;
77409;SDS011;66481;51.332;22.804;2023-11-19T22:24:58;31.42;;;14.32;;
77409;SDS011;66481;51.332;22.804;2023-11-19T22:29:00;27.63;;;14.10;;
77409;SDS011;66481;51.332;22.804;2023-11-19T22:33:06;35.60;;;17.10;;
77409;SDS011;66481;51.332;22.804;2023-11-19T22:41:09;25.70;;;12.25;;
77409;SDS011;66481;51.332;22.804;2023-11-19T22:45:10;34.55;;;15.20;;
77409;SDS011;66481;51.332;22.804;2023-11-19T22:49:12;40.70;;;16.65;;
77409;SDS011;66481;51.332;22.804;2023-11-19T22:53:13;34.08;;;15.98;;
77409;SDS011;66481;51.332;22.804;2023-11-19T22:57:14;27.15;;;13.32;;
77409;SDS011;66481;51.332;22.804;2023-11-19T23:01:16;37.17;;;14.90;;
77409;SDS011;66481;51.332;22.804;2023-11-19T23:05:18;35.05;;;16.05;;
77409;SDS011;66481;51.332;22.804;2023-11-19T23:09:19;39.42;;;18.08;;
77409;SDS011;66481;51.332;22.804;2023-11-19T23:13:20;36.40;;;15.80;;
77409;SDS011;66481;51.332;22.804;2023-11-19T23:17:21;38.63;;;16.85;;
77409;SDS011;66481;51.332;22.804;2023-11-19T23:21:22;32.33;;;13.40;;
77409;SDS011;66481;51.332;22.804;2023-11-19T23:25:23;31.98;;;15.38;;
77409;SDS011;66481;51.332;22.804;2023-11-19T23:29:24;48.88;;;16.55;;
77409;SDS011;66481;51.332;22.804;2023-11-19T23:33:25;35.17;;;14.63;;
77409;SDS011;66481;51.332;22.804;2023-11-19T23:37:26;39.80;;;15.27;;
77409;SDS011;66481;51.332;22.804;2023-11-19T23:41:27;36.63;;;15.95;;
77409;SDS011;66481;51.332;22.804;2023-11-19T23:45:29;29.95;;;14.52;;
77409;SDS011;66481;51.332;22.804;2023-11-19T23:49:30;24.55;;;10.90;;
77409;SDS011;66481;51.332;22.804;2023-11-19T23:53:31;35.67;;;16.45;;
77409;SDS011;66481;51.332;22.804;2023-11-19T23:57:32;30.90;;;12.60;;
